Time;durP1;ratioP1;P1;durP2;ratioP2;P2;SDS_P1;SDS_P2;PMS_P1;PMS_P2;Temp;Humidity;BMP_temperature;BMP_pressure;BME280_temperature;BME280_humidity;BME280_pressure;Samples;Min_cycle;Max_cycle;Signal;HPM_P1;HPM_P2
2023/11/21 00:02:15;;;;;;;12.95;6.40;;;17.60;92.20;;;;;;5072432;28;20085;-76
2023/11/21 00:04:40;;;;;;;16.58;6.95;;;17.70;92.20;;;;;;5072731;28;20035;-76
2023/11/21 00:07:06;;;;;;;13.10;6.50;;;17.70;92.20;;;;;;5072538;28;20124;-75
2023/11/21 00:09:32;;;;;;;11.93;6.05;;;17.70;92.20;;;;;;5072410;28;21235;-76
2023/11/21 00:12:02;;;;;;;11.88;5.93;;;17.70;92.20;;;;;;5071365;28;20041;-76
2023/11/21 00:14:28;;;;;;;12.45;6.03;;;17.70;92.10;;;;;;5052209;28;20056;-76
2023/11/21 00:16:54;;;;;;;14.40;5.85;;;17.70;92.20;;;;;;5052115;28;20051;-76
2023/11/21 00:19:19;;;;;;;11.77;4.93;;;17.70;92.20;;;;;;5052341;28;20123;-76
2023/11/21 00:21:45;;;;;;;10.63;4.68;;;17.70;92.20;;;;;;5051441;28;20029;-76
2023/11/21 00:24:13;;;;;;;12.13;5.32;;;17.70;92.10;;;;;;5052177;28;20029;-76
2023/11/21 00:26:40;;;;;;;10.15;4.40;;;17.70;92.10;;;;;;5052175;28;20488;-76
2023/11/21 00:29:08;;;;;;;11.85;4.68;;;17.80;92.10;;;;;;5052317;28;20131;-78
2023/11/21 00:31:38;;;;;;;9.80;4.20;;;17.80;92.00;;;;;;5046494;28;20100;-77
2023/11/21 00:34:05;;;;;;;11.93;4.40;;;17.80;92.10;;;;;;5052503;28;20029;-76
2023/11/21 00:36:31;;;;;;;7.47;4.13;;;17.80;92.00;;;;;;5052039;28;20157;-75
2023/11/21 00:38:58;;;;;;;13.00;4.53;;;17.80;92.10;;;;;;5052159;28;20021;-76
2023/11/21 00:41:23;;;;;;;13.23;5.00;;;17.80;92.10;;;;;;5052028;28;20033;-77
2023/11/21 00:43:49;;;;;;;10.75;4.03;;;17.80;92.00;;;;;;5052133;28;20029;-75
2023/11/21 00:46:15;;;;;;;10.43;4.00;;;17.80;92.00;;;;;;5052169;28;20074;-73
2023/11/21 00:48:40;;;;;;;7.80;3.63;;;17.80;92.00;;;;;;5051768;28;20033;-75
2023/11/21 00:51:06;;;;;;;9.45;3.45;;;17.80;92.00;;;;;;5052332;28;20037;-74
2023/11/21 00:53:32;;;;;;;9.23;3.70;;;17.80;92.00;;;;;;5052110;28;20033;-76
2023/11/21 00:55:58;;;;;;;13.43;3.72;;;17.80;92.00;;;;;;5051934;28;20396;-75
2023/11/21 00:58:24;;;;;;;9.25;3.30;;;17.80;91.90;;;;;;5051648;28;20544;-76
2023/11/21 01:00:50;;;;;;;12.10;3.45;;;17.80;91.90;;;;;;5051391;28;20052;-75
2023/11/21 01:03:16;;;;;;;9.50;3.83;;;17.80;91.90;;;;;;5051415;28;20396;-75
2023/11/21 01:05:42;;;;;;;10.15;3.70;;;17.80;91.90;;;;;;5051406;28;20210;-75
2023/11/21 01:08:07;;;;;;;7.90;3.22;;;17.90;91.90;;;;;;5051635;28;20040;-75
2023/11/21 01:10:36;;;;;;;9.45;3.15;;;17.80;91.90;;;;;;5051379;28;20120;-76
2023/11/21 01:13:06;;;;;;;8.43;3.00;;;17.80;91.90;;;;;;5051691;28;20052;-75
2023/11/21 01:15:33;;;;;;;9.13;2.95;;;17.90;92.00;;;;;;5051526;28;20033;-75
2023/11/21 01:17:58;;;;;;;9.23;2.72;;;17.90;92.00;;;;;;5051480;28;20021;-77
2023/11/21 01:20:24;;;;;;;8.02;2.90;;;17.90;92.10;;;;;;5051567;28;20044;-76
2023/11/21 01:22:50;;;;;;;7.40;2.47;;;17.90;92.10;;;;;;5051270;28;20346;-75
2023/11/21 01:25:16;;;;;;;5.55;2.60;;;17.90;92.10;;;;;;5051552;28;20064;-75
2023/11/21 01:27:43;;;;;;;10.70;3.33;;;17.90;92.10;;;;;;5051252;28;20036;-75
2023/11/21 01:30:12;;;;;;;10.60;2.20;;;17.90;92.10;;;;;;5050855;28;20053;-77
2023/11/21 01:32:39;;;;;;;7.40;2.80;;;17.90;92.10;;;;;;5036047;28;20068;-76
2023/11/21 01:35:06;;;;;;;9.38;2.50;;;17.90;92.10;;;;;;5050080;28;20112;-76
2023/11/21 01:37:32;;;;;;;9.07;2.63;;;17.90;92.10;;;;;;5053972;28;20315;-75
2023/11/21 01:39:59;;;;;;;6.65;2.20;;;17.90;92.40;;;;;;5054762;28;20059;-76
2023/11/21 01:42:25;;;;;;;10.00;2.60;;;17.90;92.20;;;;;;5055209;28;20091;-76
2023/11/21 01:44:50;;;;;;;11.98;3.08;;;17.90;92.20;;;;;;5054818;28;20033;-75
2023/11/21 01:47:16;;;;;;;6.72;2.35;;;17.90;92.50;;;;;;5054687;28;20120;-75
2023/11/21 01:49:46;;;;;;;5.38;2.15;;;17.90;92.30;;;;;;5054885;28;20059;-77
2023/11/21 01:52:12;;;;;;;9.45;2.38;;;17.80;92.30;;;;;;5055086;28;20562;-76
2023/11/21 01:54:39;;;;;;;7.30;2.30;;;17.80;92.30;;;;;;5054806;28;20049;-76
2023/11/21 01:57:06;;;;;;;7.07;2.20;;;17.80;92.30;;;;;;5071556;28;20029;-75
2023/11/21 01:59:36;;;;;;;6.18;2.30;;;17.80;92.40;;;;;;5074952;28;20048;-76
2023/11/21 02:02:11;;;;;;;7.15;2.55;;;17.80;92.40;;;;;;5056979;28;20025;-76
2023/11/21 02:04:37;;;;;;;7.75;2.40;;;17.80;92.40;;;;;;5074976;28;20067;-76
2023/11/21 02:07:06;;;;;;;8.15;2.50;;;17.70;92.40;;;;;;5074756;28;20496;-77
2023/11/21 02:09:33;;;;;;;11.70;2.95;;;17.70;92.30;;;;;;5074175;28;20032;-75
2023/11/21 02:11:59;;;;;;;8.45;2.42;;;17.70;92.50;;;;;;5074779;28;20052;-78
2023/11/21 02:14:27;;;;;;;9.73;2.53;;;17.70;92.60;;;;;;5075582;28;20040;-76
2023/11/21 02:16:55;;;;;;;8.35;2.55;;;17.70;92.60;;;;;;5075555;28;20029;-76
2023/11/21 02:19:25;;;;;;;6.53;2.42;;;17.70;92.60;;;;;;5056438;28;20033;-77
2023/11/21 02:21:51;;;;;;;7.95;2.28;;;17.70;92.60;;;;;;5074346;28;20033;-76
2023/11/21 02:24:19;;;;;;;7.03;2.63;;;17.70;92.70;;;;;;5074496;28;20463;-76
2023/11/21 02:26:45;;;;;;;10.68;2.42;;;17.70;92.70;;;;;;5074197;28;20028;-75
2023/11/21 02:29:13;;;;;;;7.43;2.38;;;17.70;92.70;;;;;;5074406;28;20123;-77
2023/11/21 02:31:47;;;;;;;10.57;2.60;;;17.70;92.80;;;;;;5056491;28;20060;-75
2023/11/21 02:34:17;;;;;;;11.20;2.70;;;17.60;92.80;;;;;;5074571;28;20032;-76
2023/11/21 02:36:44;;;;;;;13.57;2.92;;;17.70;92.80;;;;;;5074583;28;20094;-76
2023/11/21 02:39:10;;;;;;;7.13;2.47;;;17.70;92.90;;;;;;5068949;28;20040;-76
2023/11/21 02:41:37;;;;;;;9.88;2.30;;;17.60;92.90;;;;;;5056413;28;20032;-76
2023/11/21 02:44:03;;;;;;;9.65;2.53;;;17.60;93.00;;;;;;5073546;28;20064;-76
2023/11/21 02:46:29;;;;;;;7.25;2.40;;;17.60;93.00;;;;;;5074347;28;20106;-76
2023/11/21 02:48:55;;;;;;;9.13;2.20;;;17.60;93.00;;;;;;5073998;28;20095;-76
2023/11/21 02:51:20;;;;;;;12.73;2.70;;;17.60;93.10;;;;;;5073567;28;20043;-76
2023/11/21 02:53:46;;;;;;;8.10;2.47;;;17.60;93.20;;;;;;5073954;28;20469;-76
2023/11/21 02:56:13;;;;;;;8.65;2.58;;;17.60;93.20;;;;;;5073921;28;20039;-77
2023/11/21 02:58:43;;;;;;;10.57;2.80;;;17.60;93.20;;;;;;5073835;28;20039;-76
2023/11/21 03:01:10;;;;;;;11.07;2.75;;;17.60;93.30;;;;;;5073362;28;20032;-74
2023/11/21 03:03:40;;;;;;;8.05;2.63;;;17.50;93.30;;;;;;5073734;28;20044;-76
2023/11/21 03:06:08;;;;;;;8.32;2.40;;;17.60;93.10;;;;;;5073574;28;20439;-75
2023/11/21 03:08:34;;;;;;;11.15;2.97;;;17.60;93.30;;;;;;5073726;28;20067;-76
2023/11/21 03:11:00;;;;;;;15.27;2.90;;;17.60;93.40;;;;;;5073277;28;20041;-76
2023/11/21 03:13:26;;;;;;;12.02;2.95;;;17.60;93.30;;;;;;5073365;28;20027;-76
2023/11/21 03:15:51;;;;;;;9.50;2.70;;;17.60;93.40;;;;;;5073286;28;20033;-77
2023/11/21 03:18:17;;;;;;;9.07;2.50;;;17.60;93.40;;;;;;5073240;28;20419;-74
2023/11/21 03:20:46;;;;;;;10.02;2.40;;;17.60;93.40;;;;;;5073523;28;20033;-76
2023/11/21 03:23:12;;;;;;;12.85;2.40;;;17.60;93.50;;;;;;5073485;28;20116;-76
2023/11/21 03:25:38;;;;;;;9.32;2.50;;;17.60;93.50;;;;;;5073256;28;20349;-76
2023/11/21 03:28:03;;;;;;;10.32;2.70;;;17.70;93.60;;;;;;5073132;28;20032;-75
2023/11/21 03:30:29;;;;;;;9.25;2.45;;;17.70;93.60;;;;;;5072799;28;20408;-76
2023/11/21 03:32:55;;;;;;;6.82;2.40;;;17.70;93.50;;;;;;5056876;28;20033;-75
2023/11/21 03:35:21;;;;;;;9.63;2.28;;;17.70;93.60;;;;;;5053042;28;20401;-76
2023/11/21 03:37:47;;;;;;;8.52;2.70;;;17.70;93.70;;;;;;5053065;28;20033;-76
2023/11/21 03:40:13;;;;;;;10.55;2.67;;;17.70;93.60;;;;;;5052688;28;20096;-75
2023/11/21 03:42:39;;;;;;;13.20;2.83;;;17.70;93.70;;;;;;5053024;28;20500;-76
2023/11/21 03:45:06;;;;;;;7.28;2.42;;;17.70;93.80;;;;;;5047486;28;20035;-75
2023/11/21 03:47:32;;;;;;;10.15;2.35;;;17.70;93.70;;;;;;5052863;28;20033;-76
2023/11/21 03:49:58;;;;;;;10.73;2.70;;;17.70;93.80;;;;;;5052379;28;20107;-76
2023/11/21 03:52:24;;;;;;;9.60;3.10;;;17.70;93.90;;;;;;5052264;28;20044;-76
2023/11/21 03:54:50;;;;;;;9.63;2.50;;;17.70;93.90;;;;;;5052494;28;20043;-76
2023/11/21 03:57:16;;;;;;;10.85;2.72;;;17.70;93.80;;;;;;5052034;28;20029;-75
2023/11/21 03:59:43;;;;;;;10.25;2.30;;;17.70;93.90;;;;;;5052557;28;20033;-75
2023/11/21 04:02:09;;;;;;;8.80;2.53;;;17.70;93.90;;;;;;5052419;28;20021;-75
2023/11/21 04:04:35;;;;;;;13.95;2.63;;;17.70;93.90;;;;;;5052408;28;20033;-76
2023/11/21 04:07:01;;;;;;;12.73;2.70;;;17.70;94.00;;;;;;5052546;28;20029;-76
2023/11/21 04:09:28;;;;;;;10.13;2.45;;;17.70;93.90;;;;;;5052280;28;20033;-76
2023/11/21 04:11:54;;;;;;;11.02;3.40;;;17.70;93.90;;;;;;5052100;28;20040;-75
2023/11/21 04:14:20;;;;;;;10.95;2.70;;;17.60;93.90;;;;;;5052213;28;20112;-74
2023/11/21 04:16:46;;;;;;;10.52;2.38;;;17.60;93.90;;;;;;5052294;28;20133;-75
2023/11/21 04:19:14;;;;;;;12.23;2.88;;;17.60;94.00;;;;;;5052424;28;20060;-75
2023/11/21 04:21:43;;;;;;;9.55;2.58;;;17.60;94.00;;;;;;5052137;28;20041;-76
2023/11/21 04:24:09;;;;;;;7.65;2.65;;;17.60;93.90;;;;;;5052180;28;20033;-77
2023/11/21 04:26:35;;;;;;;12.10;2.92;;;17.60;94.10;;;;;;5052139;28;20585;-76
2023/11/21 04:29:00;;;;;;;8.77;2.50;;;17.60;94.10;;;;;;5051458;28;20144;-75
2023/11/21 04:31:26;;;;;;;8.75;2.80;;;17.60;94.10;;;;;;5051575;28;20048;-75
2023/11/21 04:33:52;;;;;;;11.52;2.47;;;17.60;94.10;;;;;;5051594;28;20038;-76
2023/11/21 04:36:18;;;;;;;9.40;2.97;;;17.60;94.00;;;;;;5052053;28;20392;-75
2023/11/21 04:38:43;;;;;;;11.45;2.55;;;17.60;94.10;;;;;;5052138;28;20033;-76
2023/11/21 04:41:09;;;;;;;10.30;2.33;;;17.60;94.10;;;;;;5052197;28;20063;-76
2023/11/21 04:43:35;;;;;;;10.77;2.65;;;17.60;94.00;;;;;;5051864;28;20048;-75
2023/11/21 04:46:02;;;;;;;11.32;2.78;;;17.60;94.10;;;;;;5051614;28;20047;-75
2023/11/21 04:48:27;;;;;;;6.00;2.00;;;17.60;94.10;;;;;;5033349;28;20377;-76
2023/11/21 04:50:53;;;;;;;14.07;2.72;;;17.60;94.10;;;;;;5046451;28;20059;-75
2023/11/21 04:53:19;;;;;;;10.02;2.65;;;17.60;94.10;;;;;;5051796;28;20112;-77
2023/11/21 04:55:45;;;;;;;9.38;2.78;;;17.60;94.10;;;;;;5051666;28;20053;-76
2023/11/21 04:58:12;;;;;;;8.02;2.72;;;17.60;94.10;;;;;;5051443;28;20112;-77
2023/11/21 05:00:38;;;;;;;7.82;2.55;;;17.60;94.10;;;;;;5051351;28;20039;-75
2023/11/21 05:03:05;;;;;;;11.70;3.13;;;17.60;94.20;;;;;;5051672;28;20108;-75
2023/11/21 05:05:30;;;;;;;8.73;2.88;;;17.60;94.20;;;;;;5051690;28;20083;-76
2023/11/21 05:07:56;;;;;;;9.75;2.55;;;17.60;94.10;;;;;;5054547;28;20036;-76
2023/11/21 05:10:22;;;;;;;6.10;2.40;;;17.60;94.10;;;;;;5055425;28;20076;-74
2023/11/21 05:12:50;;;;;;;8.35;2.15;;;17.60;94.30;;;;;;5055683;28;20041;-77
2023/11/21 05:15:19;;;;;;;9.25;2.85;;;17.60;94.10;;;;;;5056050;28;20051;-76
2023/11/21 05:17:45;;;;;;;13.43;2.75;;;17.60;94.10;;;;;;5055419;28;20041;-76
2023/11/21 05:20:17;;;;;;;8.27;2.55;;;17.60;94.00;;;;;;5055767;28;20040;-77
2023/11/21 05:22:43;;;;;;;7.82;2.55;;;17.60;94.10;;;;;;5055408;28;20090;-76
2023/11/21 05:25:11;;;;;;;9.20;2.85;;;17.60;94.10;;;;;;5055298;28;20037;-77
2023/11/21 05:27:36;;;;;;;11.75;2.95;;;17.60;94.10;;;;;;5055366;28;20037;-76
2023/11/21 05:30:09;;;;;;;8.60;2.80;;;17.60;94.00;;;;;;5055041;28;20175;-76
2023/11/21 05:32:34;;;;;;;9.50;2.92;;;17.60;94.00;;;;;;5055382;28;20037;-77
2023/11/21 05:35:01;;;;;;;15.65;2.90;;;17.60;94.00;;;;;;5055156;28;20474;-76
2023/11/21 05:37:27;;;;;;;10.35;2.92;;;17.70;94.10;;;;;;5055331;28;20037;-77
2023/11/21 05:39:59;;;;;;;9.07;2.50;;;17.70;94.10;;;;;;5037589;28;20443;-76
2023/11/21 05:42:25;;;;;;;18.05;2.47;;;17.70;94.00;;;;;;5054776;28;20037;-77
2023/11/21 05:44:51;;;;;;;9.55;2.42;;;17.70;94.10;;;;;;5055299;28;20369;-77
2023/11/21 05:47:17;;;;;;;10.35;2.60;;;17.70;94.10;;;;;;5055103;28;20025;-78
2023/11/21 05:49:45;;;;;;;7.65;2.20;;;17.70;94.10;;;;;;5054939;28;20091;-77
2023/11/21 05:52:10;;;;;;;9.18;3.50;;;17.70;94.10;;;;;;5054702;28;20047;-76
2023/11/21 05:54:36;;;;;;;8.80;2.80;;;17.70;94.10;;;;;;5054569;28;20104;-77
2023/11/21 05:57:02;;;;;;;9.60;2.90;;;17.70;94.10;;;;;;5054881;28;20032;-77
2023/11/21 05:59:28;;;;;;;9.18;2.70;;;17.70;94.10;;;;;;5031313;28;20087;-77
2023/11/21 06:01:53;;;;;;;10.85;2.25;;;17.70;94.00;;;;;;5054787;28;20062;-77
2023/11/21 06:04:22;;;;;;;9.73;2.38;;;17.70;94.00;;;;;;5054774;28;20033;-77
2023/11/21 06:06:47;;;;;;;11.88;3.40;;;17.70;94.00;;;;;;5054773;28;20033;-76
2023/11/21 06:09:13;;;;;;;8.75;2.70;;;17.70;93.90;;;;;;5037015;28;20029;-77
2023/11/21 06:11:39;;;;;;;9.40;2.40;;;17.70;93.90;;;;;;5054219;28;20404;-76
2023/11/21 06:14:07;;;;;;;8.15;2.38;;;17.70;93.90;;;;;;5054481;28;20059;-76
2023/11/21 06:16:33;;;;;;;10.38;2.50;;;17.70;93.90;;;;;;5054051;28;20040;-77
2023/11/21 06:18:59;;;;;;;9.15;2.75;;;17.70;93.80;;;;;;5053141;28;20370;-75
2023/11/21 06:21:25;;;;;;;11.68;2.78;;;17.70;93.90;;;;;;5054209;28;20043;-78
2023/11/21 06:23:52;;;;;;;14.68;3.20;;;17.70;94.00;;;;;;5036088;28;20111;-79
2023/11/21 06:26:18;;;;;;;9.07;2.65;;;17.80;93.90;;;;;;5054356;28;20538;-75
2023/11/21 06:28:45;;;;;;;13.35;2.85;;;17.70;93.90;;;;;;5035936;28;20041;-76
2023/11/21 06:31:10;;;;;;;10.38;2.47;;;17.70;94.00;;;;;;5054427;28;20098;-77
2023/11/21 06:33:36;;;;;;;10.45;2.72;;;17.80;94.10;;;;;;5053808;28;20381;-78
2023/11/21 06:36:02;;;;;;;13.20;3.08;;;17.80;94.10;;;;;;5054310;28;20037;-78
2023/11/21 06:38:29;;;;;;;15.45;3.38;;;17.80;94.10;;;;;;5053905;28;20112;-77
2023/11/21 06:40:56;;;;;;;12.00;2.60;;;17.80;94.20;;;;;;5053968;28;20107;-76
2023/11/21 06:43:22;;;;;;;12.77;3.35;;;17.80;94.20;;;;;;5054111;28;20420;-77
2023/11/21 06:45:48;;;;;;;16.38;2.97;;;17.80;94.20;;;;;;5053907;28;20113;-77
2023/11/21 06:48:14;;;;;;;11.82;2.85;;;17.80;94.20;;;;;;5054169;28;20063;-77
2023/11/21 06:50:41;;;;;;;13.25;3.00;;;17.80;94.20;;;;;;5053426;28;20102;-75
2023/11/21 06:53:08;;;;;;;12.85;3.25;;;17.90;94.30;;;;;;5053256;28;20029;-75
2023/11/21 06:55:33;;;;;;;10.50;3.50;;;17.90;94.40;;;;;;5053620;28;20128;-74
2023/11/21 06:58:00;;;;;;;10.30;3.45;;;17.90;94.30;;;;;;5054585;28;20230;-79
2023/11/21 07:00:27;;;;;;;10.48;3.22;;;17.90;94.40;;;;;;5073088;28;20028;-77
2023/11/21 07:02:54;;;;;;;8.02;2.72;;;17.90;94.40;;;;;;5047791;28;20489;-76
2023/11/21 07:05:21;;;;;;;16.40;3.60;;;17.90;94.40;;;;;;5053460;28;20037;-78
2023/11/21 07:07:48;;;;;;;11.77;3.28;;;18.00;94.40;;;;;;5070547;28;20033;-78
2023/11/21 07:10:14;;;;;;;10.95;3.08;;;18.00;94.50;;;;;;5069971;28;20183;-76
2023/11/21 07:12:40;;;;;;;13.77;3.65;;;18.00;94.50;;;;;;5061681;28;20066;-77
2023/11/21 07:15:09;;;;;;;10.93;3.45;;;18.00;94.50;;;;;;5063466;28;20108;-77
2023/11/21 07:17:35;;;;;;;12.27;3.30;;;18.00;94.40;;;;;;5063101;28;20388;-77
2023/11/21 07:20:06;;;;;;;13.73;3.45;;;18.00;94.50;;;;;;5054534;28;20032;-75
2023/11/21 07:22:32;;;;;;;21.67;3.50;;;18.00;94.50;;;;;;5072521;28;20039;-77
2023/11/21 07:24:57;;;;;;;14.50;3.58;;;18.10;94.60;;;;;;5072900;28;20033;-76
2023/11/21 07:27:23;;;;;;;11.55;3.60;;;18.10;94.50;;;;;;5069742;28;20042;-75
2023/11/21 07:29:49;;;;;;;12.77;4.13;;;18.10;94.50;;;;;;5072266;28;20052;-76
2023/11/21 07:32:15;;;;;;;14.32;3.80;;;18.10;94.50;;;;;;5072610;28;20086;-75
2023/11/21 07:34:41;;;;;;;22.50;4.05;;;18.10;94.60;;;;;;5072303;28;20476;-75
2023/11/21 07:37:08;;;;;;;13.73;3.58;;;18.20;94.50;;;;;;5072676;28;20036;-76
2023/11/21 07:39:35;;;;;;;11.57;3.00;;;18.20;94.40;;;;;;5069365;28;20047;-75
2023/11/21 07:42:02;;;;;;;12.77;3.42;;;18.30;94.40;;;;;;5072831;28;20025;-75
2023/11/21 07:44:28;;;;;;;16.38;4.00;;;18.30;94.30;;;;;;5072161;28;20057;-76
2023/11/21 07:46:57;;;;;;;16.25;3.45;;;18.30;94.20;;;;;;5072019;28;20025;-76
2023/11/21 07:49:24;;;;;;;7.70;2.70;;;18.30;94.20;;;;;;5072100;28;20029;-75
2023/11/21 07:51:49;;;;;;;12.43;3.47;;;18.40;94.10;;;;;;5072004;28;20511;-76
2023/11/21 07:54:16;;;;;;;9.38;3.00;;;18.40;94.10;;;;;;5072038;28;20041;-76
2023/11/21 07:56:42;;;;;;;14.75;3.50;;;18.40;94.10;;;;;;5070537;28;20036;-76
2023/11/21 07:59:08;;;;;;;9.70;3.00;;;18.50;94.00;;;;;;5063708;28;20127;-84
2023/11/21 08:01:34;;;;;;;12.95;4.00;;;18.50;94.00;;;;;;5065752;28;20123;-88
2023/11/21 08:04:03;;;;;;;10.73;3.28;;;18.50;94.00;;;;;;5063920;28;20111;-81
2023/11/21 08:06:32;;;;;;;8.77;3.00;;;18.50;94.10;;;;;;5059110;28;20090;-81
2023/11/21 08:08:58;;;;;;;12.00;3.65;;;18.40;94.20;;;;;;5069639;28;20040;-80
2023/11/21 08:11:26;;;;;;;10.10;2.80;;;18.40;94.20;;;;;;5059189;28;20045;-81
2023/11/21 08:13:53;;;;;;;11.75;3.20;;;18.40;94.20;;;;;;5049966;28;20082;-82
2023/11/21 08:16:19;;;;;;;14.68;4.15;;;18.40;94.30;;;;;;5063224;28;20044;-79
2023/11/21 08:18:44;;;;;;;15.43;4.00;;;18.50;94.30;;;;;;5060879;28;20124;-80
2023/11/21 08:21:12;;;;;;;13.82;4.00;;;18.50;94.30;;;;;;5044348;28;20583;-81
2023/11/21 08:23:38;;;;;;;18.42;5.10;;;18.50;94.30;;;;;;5060766;28;20040;-83
2023/11/21 08:26:05;;;;;;;14.95;3.38;;;18.60;94.30;;;;;;5060442;28;20044;-79
2023/11/21 08:28:31;;;;;;;14.80;3.58;;;18.60;94.30;;;;;;5062655;28;20119;-81
2023/11/21 08:30:57;;;;;;;14.13;3.25;;;18.60;94.30;;;;;;5060589;28;20481;-81
2023/11/21 08:33:22;;;;;;;15.73;3.50;;;18.60;94.20;;;;;;5061714;28;20041;-82
2023/11/21 08:35:49;;;;;;;15.77;3.35;;;18.60;94.20;;;;;;5044083;28;20056;-75
2023/11/21 08:38:14;;;;;;;19.33;3.03;;;18.70;94.20;;;;;;5060413;28;20210;-75
2023/11/21 08:40:40;;;;;;;12.18;3.05;;;18.70;94.10;;;;;;5059513;28;20033;-75
2023/11/21 08:43:07;;;;;;;11.45;3.17;;;18.70;94.00;;;;;;5061894;28;20060;-74
2023/11/21 08:45:34;;;;;;;12.40;3.05;;;18.80;94.00;;;;;;5060774;28;20515;-76
2023/11/21 08:48:00;;;;;;;12.18;3.53;;;18.90;94.00;;;;;;5062117;28;20472;-75
2023/11/21 08:50:26;;;;;;;12.23;3.75;;;19.00;93.90;;;;;;5061910;28;20417;-76
2023/11/21 08:52:51;;;;;;;9.80;3.00;;;19.00;93.70;;;;;;5062074;28;20147;-75
2023/11/21 08:55:19;;;;;;;11.45;3.58;;;19.10;93.70;;;;;;5060579;28;20033;-75
2023/11/21 08:57:48;;;;;;;10.93;3.10;;;19.10;93.50;;;;;;5059791;28;20111;-74
2023/11/21 09:00:16;;;;;;;10.85;3.53;;;19.20;93.50;;;;;;5051130;28;20060;-75
2023/11/21 09:02:43;;;;;;;9.50;3.35;;;19.20;93.40;;;;;;5053903;28;20068;-74
2023/11/21 09:05:13;;;;;;;11.73;3.40;;;19.30;93.30;;;;;;5062628;28;20500;-74
2023/11/21 09:07:41;;;;;;;10.80;3.00;;;19.40;93.20;;;;;;5071390;28;20109;-74
2023/11/21 09:10:07;;;;;;;11.05;3.53;;;19.40;93.20;;;;;;5071641;28;20489;-75
2023/11/21 09:12:37;;;;;;;13.85;3.85;;;19.40;93.10;;;;;;5071213;28;20043;-75
2023/11/21 09:15:07;;;;;;;10.85;4.10;;;19.40;93.10;;;;;;5071561;28;20067;-75
2023/11/21 09:17:37;;;;;;;13.75;4.88;;;19.40;93.10;;;;;;5071165;28;20060;-75
2023/11/21 09:20:06;;;;;;;15.43;4.70;;;19.40;93.20;;;;;;5071160;28;20028;-75
2023/11/21 09:22:32;;;;;;;14.90;4.90;;;19.40;93.20;;;;;;5071437;28;20041;-75
2023/11/21 09:24:58;;;;;;;11.57;4.07;;;19.40;93.30;;;;;;5071113;28;20031;-75
2023/11/21 09:27:25;;;;;;;12.93;3.65;;;19.40;93.40;;;;;;5071087;28;20048;-75
2023/11/21 09:29:52;;;;;;;8.77;3.05;;;19.30;93.40;;;;;;5071174;28;20048;-75
2023/11/21 09:32:21;;;;;;;14.57;4.35;;;19.30;93.70;;;;;;5071210;28;20088;-74
2023/11/21 09:34:47;;;;;;;12.93;4.22;;;19.20;93.50;;;;;;5071294;28;20035;-75
2023/11/21 09:37:14;;;;;;;10.45;3.78;;;19.10;93.50;;;;;;5071040;28;20481;-75
2023/11/21 09:39:41;;;;;;;17.20;5.57;;;19.10;93.70;;;;;;5071411;28;20082;-75
2023/11/21 09:42:30;;;;;;;17.98;5.70;;;19.00;93.80;;;;;;5071939;28;20037;-77
2023/11/21 09:45:12;;;;;;;20.77;5.75;;;19.00;93.80;;;;;;5071372;28;20036;-77
2023/11/21 09:47:39;;;;;;;14.85;5.57;;;19.00;94.00;;;;;;5071019;28;20060;-77
2023/11/21 09:50:09;;;;;;;15.68;5.78;;;18.90;94.00;;;;;;5071368;28;20100;-80
2023/11/21 09:52:57;;;;;;;17.80;5.63;;;18.80;94.10;;;;;;5072900;28;20426;-82
2023/11/21 09:55:26;;;;;;;14.25;5.40;;;18.70;94.10;;;;;;5058593;28;20111;-81
2023/11/21 09:57:54;;;;;;;12.50;4.90;;;18.60;94.30;;;;;;5076373;28;20037;-83
2023/11/21 10:00:23;;;;;;;14.38;5.43;;;18.50;94.50;;;;;;5075012;28;20037;-82
2023/11/21 10:02:49;;;;;;;11.00;3.72;;;18.50;94.50;;;;;;5075507;28;20048;-82
2023/11/21 10:05:17;;;;;;;12.05;4.28;;;18.40;94.50;;;;;;5057907;28;20060;-80
2023/11/21 10:07:44;;;;;;;13.77;5.20;;;18.40;94.50;;;;;;5074851;28;20083;-82
2023/11/21 10:10:11;;;;;;;15.52;4.22;;;18.50;94.60;;;;;;5074615;28;20072;-83
2023/11/21 10:12:38;;;;;;;16.63;4.28;;;18.50;94.40;;;;;;5073079;28;20045;-81
2023/11/21 10:15:08;;;;;;;13.98;5.78;;;18.50;94.40;;;;;;5066058;28;20047;-79
2023/11/21 10:17:43;;;;;;;10.88;3.92;;;18.50;94.30;;;;;;5074705;28;20565;-76
2023/11/21 10:20:13;;;;;;;15.23;4.60;;;18.60;94.50;;;;;;5074394;28;20036;-85
2023/11/21 10:22:43;;;;;;;11.60;4.55;;;18.60;94.40;;;;;;5074699;28;20052;-79
2023/11/21 10:25:10;;;;;;;17.55;4.15;;;18.60;94.40;;;;;;5074122;28;20033;-82
2023/11/21 10:43:10;;;;;;;9.75;3.67;;;18.80;93.60;;;;;;5150673;27;20385;-83
2023/11/21 10:45:37;;;;;;;11.32;3.33;;;19.60;92.40;;;;;;5150502;27;20027;-84
2023/11/21 10:48:10;;;;;;;12.93;4.05;;;19.60;92.30;;;;;;5151071;27;20019;-82
2023/11/21 10:50:37;;;;;;;9.40;2.75;;;19.70;92.20;;;;;;5150893;27;20389;-79
2023/11/21 10:53:04;;;;;;;12.07;3.85;;;19.70;91.90;;;;;;5151438;27;20027;-82
2023/11/21 10:55:31;;;;;;;12.98;4.25;;;19.70;92.10;;;;;;5150800;27;20034;-80
2023/11/21 10:57:59;;;;;;;14.57;3.92;;;19.60;91.60;;;;;;5150639;27;20022;-80
2023/11/21 11:00:27;;;;;;;10.52;3.53;;;19.60;91.40;;;;;;5151369;27;20093;-81
2023/11/21 11:02:56;;;;;;;13.57;3.58;;;19.70;91.40;;;;;;5152234;27;20062;-82
2023/11/21 11:05:24;;;;;;;10.65;3.55;;;19.70;91.30;;;;;;5151448;27;20024;-82
2023/11/21 11:08:02;;;;;;;8.68;3.55;;;19.70;91.20;;;;;;5151440;27;20051;-83
2023/11/21 11:10:29;;;;;;;12.70;2.85;;;19.70;91.10;;;;;;5150654;27;20204;-83
2023/11/21 11:12:59;;;;;;;6.32;1.88;;;19.70;91.00;;;;;;5149203;27;20015;-81
2023/11/21 11:15:26;;;;;;;8.10;2.28;;;19.80;90.70;;;;;;5147266;27;20036;-84
2023/11/21 11:17:56;;;;;;;8.40;2.40;;;19.80;90.50;;;;;;5129641;27;20488;-80
2023/11/21 11:20:30;;;;;;;11.27;2.58;;;19.90;90.30;;;;;;5129970;27;20099;-82
2023/11/21 11:23:01;;;;;;;10.15;2.15;;;19.90;90.10;;;;;;5127555;27;20066;-81
2023/11/21 11:25:53;;;;;;;14.52;2.50;;;19.80;90.00;;;;;;5129657;27;20034;-86
2023/11/21 11:28:36;;;;;;;11.68;2.45;;;19.90;89.40;;;;;;5130389;27;20055;-77
2023/11/21 11:31:40;;;;;;;6.50;1.80;;;20.00;89.10;;;;;;5131186;27;20104;-83
2023/11/21 11:34:23;;;;;;;4.93;1.75;;;20.20;88.70;;;;;;5126710;27;20036;-81
2023/11/21 11:37:00;;;;;;;9.02;2.50;;;20.20;88.20;;;;;;5120823;28;20134;-82
2023/11/21 11:39:46;;;;;;;10.85;2.50;;;20.20;88.00;;;;;;5109339;28;20024;-81
2023/11/21 11:42:16;;;;;;;13.95;3.20;;;20.30;87.50;;;;;;5104896;28;20504;-81
2023/11/21 11:44:51;;;;;;;8.35;2.30;;;20.50;87.00;;;;;;5094847;28;20070;-81
2023/11/21 11:47:22;;;;;;;12.25;2.92;;;20.60;86.40;;;;;;5099021;28;20157;-81
2023/11/21 11:50:27;;;;;;;13.50;2.72;;;20.60;85.40;;;;;;5123729;27;20389;-83
2023/11/21 11:52:57;;;;;;;10.20;2.35;;;20.60;85.50;;;;;;5115511;28;20040;-83
2023/11/21 11:55:24;;;;;;;8.65;2.30;;;20.50;85.60;;;;;;5115819;28;20020;-86
2023/11/21 11:57:56;;;;;;;12.70;3.17;;;20.50;85.10;;;;;;5114390;28;20342;-81
2023/11/21 12:00:30;;;;;;;9.00;3.00;;;20.60;85.00;;;;;;5114772;28;20035;-82
2023/11/21 12:02:58;;;;;;;8.77;2.53;;;20.60;84.50;;;;;;5115111;28;20016;-81
2023/11/21 12:05:27;;;;;;;9.43;2.75;;;20.70;83.70;;;;;;5114407;28;20385;-84
2023/11/21 12:07:57;;;;;;;11.93;2.35;;;20.70;82.90;;;;;;5102351;28;20028;-81
2023/11/21 12:10:25;;;;;;;12.63;2.38;;;20.60;82.30;;;;;;5116131;27;20024;-81
2023/11/21 12:12:54;;;;;;;10.85;2.15;;;20.60;82.20;;;;;;5119386;27;20053;-80
2023/11/21 12:15:21;;;;;;;12.15;3.05;;;20.60;82.20;;;;;;5134980;27;20094;-82
2023/11/21 12:17:48;;;;;;;12.48;3.03;;;20.60;82.00;;;;;;5130068;27;20035;-87
2023/11/21 12:20:17;;;;;;;10.15;2.90;;;20.70;82.20;;;;;;5114751;27;20058;-81
2023/11/21 12:22:47;;;;;;;9.77;2.83;;;20.60;82.10;;;;;;5114600;28;20042;-80
2023/11/21 12:25:15;;;;;;;14.82;2.75;;;20.60;82.10;;;;;;5115023;28;20020;-78
2023/11/21 12:27:42;;;;;;;15.02;2.90;;;20.50;82.00;;;;;;5114839;28;20031;-83
2023/11/21 12:30:13;;;;;;;14.45;3.40;;;20.50;81.90;;;;;;5116054;27;20027;-81
2023/11/21 12:32:40;;;;;;;14.45;3.50;;;20.50;81.90;;;;;;5116726;28;20392;-83
2023/11/21 12:35:06;;;;;;;8.70;2.78;;;20.50;81.60;;;;;;5120471;28;20020;-83
2023/11/21 12:37:32;;;;;;;10.93;2.63;;;20.60;81.40;;;;;;5116300;28;20133;-85
2023/11/21 12:39:58;;;;;;;10.52;2.47;;;20.70;81.20;;;;;;5113338;28;20080;-82
2023/11/21 12:42:25;;;;;;;14.65;3.22;;;20.70;81.00;;;;;;5114697;27;20048;-81
2023/11/21 12:45:08;;;;;;;10.07;2.60;;;20.70;80.30;;;;;;5124722;27;20027;-80
2023/11/21 12:47:35;;;;;;;10.90;2.75;;;20.80;80.40;;;;;;5134165;27;20059;-82
2023/11/21 12:50:03;;;;;;;16.98;3.28;;;21.00;79.30;;;;;;5134354;27;20023;-81
2023/11/21 12:52:32;;;;;;;11.55;2.83;;;21.00;78.90;;;;;;5134530;27;20031;-82
2023/11/21 12:54:58;;;;;;;11.38;2.42;;;21.00;78.10;;;;;;5133063;27;20031;-81
2023/11/21 12:57:27;;;;;;;11.50;2.88;;;21.10;77.70;;;;;;5134518;27;20027;-80
2023/11/21 12:59:58;;;;;;;19.05;3.67;;;21.00;77.20;;;;;;5134737;27;20102;-73